createdAt,value
2018-05-09T00:00:59.376Z,58.74
2018-05-09T00:03:27.365Z,58.09
2018-05-09T00:05:55.419Z,59.96
2018-05-09T00:08:23.466Z,58.87
2018-05-09T00:10:51.489Z,59.08
2018-05-09T00:13:19.481Z,58.71
2018-05-09T00:15:47.496Z,58.37
2018-05-09T00:18:15.526Z,58.61
2018-05-09T00:20:43.575Z,58.83
2018-05-09T00:23:11.871Z,58.97
2018-05-09T00:25:39.809Z,58.60
2018-05-09T00:28:07.859Z,58.56
2018-05-09T00:30:35.892Z,58.89
2018-05-09T00:33:03.915Z,58.54
2018-05-09T00:35:31.893Z,60.21
2018-05-09T00:37:59.913Z,60.65
2018-05-09T00:40:27.900Z,60.55
2018-05-09T00:42:55.928Z,60.34
2018-05-09T00:45:23.972Z,59.61
2018-05-09T00:47:51.932Z,59.08
2018-05-09T00:50:20.004Z,58.97
2018-05-09T00:52:47.922Z,58.97
2018-05-09T00:55:15.925Z,58.51
2018-05-09T00:57:43.980Z,59.14
2018-05-09T01:00:11.998Z,58.74
2018-05-09T01:02:40.020Z,58.93
2018-05-09T01:05:07.975Z,58.37
2018-05-09T01:07:35.991Z,58.70
2018-05-09T01:10:04.065Z,58.35
2018-05-09T01:12:32.019Z,59.05
2018-05-09T01:15:00.064Z,58.43
2018-05-09T01:17:28.080Z,58.08
2018-05-09T01:19:56.078Z,58.42
2018-05-09T01:22:24.081Z,58.22
2018-05-09T01:24:52.670Z,58.80
2018-05-09T01:27:20.671Z,58.82
2018-05-09T01:29:48.714Z,60.67
2018-05-09T01:32:16.729Z,59.91
2018-05-09T01:34:44.728Z,59.37
2018-05-09T01:37:12.724Z,59.29
2018-05-09T01:39:40.722Z,60.51
2018-05-09T01:42:08.720Z,64.16
2018-05-09T01:44:36.747Z,63.33
2018-05-09T01:47:04.711Z,62.69
2018-05-09T01:49:32.709Z,64.90
2018-05-09T01:52:00.718Z,65.28
2018-05-09T01:54:28.823Z,63.48
2018-05-09T01:56:56.844Z,62.45
2018-05-09T01:59:24.843Z,61.90
2018-05-09T02:01:52.862Z,60.89
2018-05-09T02:04:20.861Z,59.87
2018-05-09T02:06:48.877Z,59.85
2018-05-09T02:09:16.917Z,59.17
2018-05-09T02:11:44.890Z,59.61
2018-05-09T02:14:12.911Z,59.49
2018-05-09T02:16:41.007Z,59.75
2018-05-09T02:19:09.004Z,63.14
2018-05-09T02:21:36.999Z,60.51
2018-05-09T02:24:04.946Z,62.05
2018-05-09T02:26:33.523Z,62.08
2018-05-09T02:29:01.643Z,59.88
2018-05-09T02:31:29.646Z,59.46
2018-05-09T02:33:57.661Z,62.60
2018-05-09T02:36:25.680Z,60.45
2018-05-09T02:38:53.619Z,60.21
2018-05-09T02:41:21.662Z,61.55
2018-05-09T02:43:49.772Z,61.97
2018-05-09T02:46:17.720Z,62.01
2018-05-09T02:48:45.751Z,61.20
2018-05-09T02:51:13.768Z,61.21
2018-05-09T02:53:41.805Z,61.28
2018-05-09T02:56:09.792Z,61.06
2018-05-09T02:58:37.805Z,60.83
2018-05-09T03:01:05.779Z,60.26
2018-05-09T03:03:33.808Z,63.47
2018-05-09T03:06:01.712Z,64.75
2018-05-09T03:08:29.614Z,62.86
2018-05-09T03:10:57.584Z,61.20
2018-05-09T03:13:25.602Z,61.54
2018-05-09T03:15:53.618Z,60.73
2018-05-09T03:18:21.671Z,62.20
2018-05-09T03:20:49.706Z,61.25
2018-05-09T03:23:17.719Z,60.91
2018-05-09T03:25:45.655Z,60.45
2018-05-09T03:28:14.224Z,60.36
2018-05-09T03:30:42.208Z,59.99
2018-05-09T03:33:10.232Z,61.31
2018-05-09T03:35:38.221Z,60.75
2018-05-09T03:38:06.207Z,60.09
2018-05-09T03:40:34.162Z,59.62
2018-05-09T03:43:02.172Z,58.88
2018-05-09T03:45:30.129Z,58.49
2018-05-09T03:47:58.155Z,59.17
2018-05-09T03:50:26.093Z,58.09
2018-05-09T03:52:54.052Z,58.37
2018-05-09T03:55:22.102Z,57.87
2018-05-09T03:57:50.111Z,59.40
2018-05-09T04:00:18.143Z,62.46
2018-05-09T04:02:57.946Z,66.73
2018-05-09T04:05:37.794Z,64.26
2018-05-09T04:08:18.681Z,67.00
2018-05-09T04:10:46.690Z,65.35
2018-05-09T04:13:14.792Z,67.00
2018-05-09T04:15:42.809Z,67.71
2018-05-09T04:18:11.164Z,69.34
2018-05-09T04:20:39.272Z,69.79
2018-05-09T04:23:07.210Z,69.11
2018-05-09T04:25:35.191Z,67.43
2018-05-09T04:28:03.181Z,64.64
2018-05-09T04:30:31.366Z,62.41
2018-05-09T04:32:59.445Z,62.26
2018-05-09T04:35:27.490Z,60.85
2018-05-09T04:37:55.465Z,62.10
2018-05-09T04:40:23.444Z,63.77
2018-05-09T04:42:51.445Z,62.33
2018-05-09T04:45:19.498Z,62.43
2018-05-09T04:47:47.504Z,62.81
2018-05-09T04:50:15.512Z,61.43
2018-05-09T04:52:43.510Z,61.31
2018-05-09T04:55:11.511Z,60.80
2018-05-09T04:57:39.521Z,59.39
2018-05-09T05:00:07.558Z,58.59
2018-05-09T05:02:35.541Z,57.77
2018-05-09T05:05:03.585Z,57.37
2018-05-09T05:07:31.605Z,61.80
2018-05-09T05:09:59.613Z,61.79
2018-05-09T05:12:27.630Z,62.12
2018-05-09T05:14:55.594Z,59.43
2018-05-09T05:17:23.617Z,59.18
2018-05-09T05:19:51.611Z,58.99
2018-05-09T05:22:19.672Z,57.77
2018-05-09T05:24:47.702Z,60.24
2018-05-09T05:27:15.684Z,58.89
2018-05-09T05:29:43.766Z,60.02
2018-05-09T05:32:12.117Z,61.03
2018-05-09T05:34:40.168Z,61.87
2018-05-09T05:37:08.186Z,62.50
2018-05-09T05:39:36.155Z,63.74
2018-05-09T05:42:04.155Z,58.88
2018-05-09T05:44:32.154Z,59.86
2018-05-09T05:47:00.272Z,59.80
2018-05-09T05:49:28.434Z,59.26
2018-05-09T05:51:56.464Z,60.20
2018-05-09T05:54:24.561Z,58.65
2018-05-09T05:56:52.537Z,57.51
2018-05-09T05:59:20.581Z,57.29
2018-05-09T06:01:48.667Z,56.50
2018-05-09T06:04:16.671Z,57.09
2018-05-09T06:06:44.679Z,53.97
2018-05-09T06:09:12.685Z,52.02
2018-05-09T06:11:40.738Z,52.61
2018-05-09T06:14:08.673Z,53.74
2018-05-09T06:16:36.661Z,51.61
2018-05-09T06:19:04.726Z,51.64
2018-05-09T06:21:32.771Z,50.53
2018-05-09T06:24:00.885Z,50.70
2018-05-09T06:26:28.887Z,48.56
2018-05-09T06:28:56.895Z,49.19
2018-05-09T06:31:24.935Z,47.32
2018-05-09T06:33:53.191Z,47.96
2018-05-09T06:36:21.272Z,47.82
2018-05-09T06:38:49.281Z,46.24
2018-05-09T06:41:17.386Z,45.67
2018-05-09T06:43:45.482Z,45.29
2018-05-09T06:46:13.511Z,43.47
2018-05-09T06:48:41.506Z,44.46
2018-05-09T06:51:09.464Z,44.88
2018-05-09T06:53:37.433Z,43.57
2018-05-09T06:56:05.438Z,44.54
2018-05-09T06:58:33.392Z,42.60
2018-05-09T07:01:01.494Z,41.76
2018-05-09T07:03:29.595Z,41.54
2018-05-09T07:05:57.615Z,40.63
2018-05-09T07:08:25.609Z,39.04
2018-05-09T07:10:53.701Z,39.68
2018-05-09T07:13:21.737Z,39.51
2018-05-09T07:15:49.764Z,38.22
2018-05-09T07:18:17.702Z,36.90
2018-05-09T07:20:45.669Z,38.99
2018-05-09T07:23:13.801Z,37.35
2018-05-09T07:25:41.717Z,35.65
2018-05-09T07:28:09.746Z,35.23
2018-05-09T07:30:37.764Z,35.41
2018-05-09T07:33:05.742Z,36.46
2018-05-09T07:35:34.174Z,35.57
2018-05-09T07:38:02.185Z,34.30
2018-05-09T07:40:30.254Z,34.86
2018-05-09T07:42:58.247Z,35.38
2018-05-09T07:45:26.277Z,35.90
2018-05-09T07:47:54.346Z,34.30
2018-05-09T07:50:22.314Z,33.45
2018-05-09T07:52:50.347Z,32.34
2018-05-09T07:55:18.357Z,31.05
2018-05-09T07:57:46.392Z,32.38
2018-05-09T08:00:14.408Z,33.66
2018-05-09T08:02:42.441Z,31.19
2018-05-09T08:05:10.417Z,29.83
2018-05-09T08:07:38.437Z,29.23
2018-05-09T08:10:06.508Z,27.68
2018-05-09T08:12:34.439Z,30.44
2018-05-09T08:15:02.530Z,30.11
2018-05-09T08:17:30.516Z,28.28
2018-05-09T08:19:58.575Z,28.84
2018-05-09T08:22:26.549Z,29.15
2018-05-09T08:24:54.590Z,28.53
2018-05-09T08:27:22.618Z,29.88
2018-05-09T08:29:50.691Z,28.45
2018-05-09T08:32:18.843Z,30.46
2018-05-09T08:34:46.956Z,29.97
2018-05-09T08:37:15.329Z,31.25
2018-05-09T08:39:43.414Z,31.65
2018-05-09T08:42:11.450Z,29.60
2018-05-09T08:44:39.414Z,28.72
2018-05-09T08:47:07.411Z,27.91
2018-05-09T08:49:36.878Z,28.64
2018-05-09T08:52:04.944Z,28.29
2018-05-09T08:54:32.950Z,26.07
2018-05-09T08:57:00.981Z,27.50
2018-05-09T08:59:28.970Z,26.79
2018-05-09T09:01:57.001Z,27.46
2018-05-09T09:04:25.066Z,28.32
2018-05-09T09:06:53.030Z,29.84
2018-05-09T09:09:21.030Z,28.96
2018-05-09T09:11:49.172Z,28.19
2018-05-09T09:14:17.270Z,28.09
2018-05-09T09:16:45.351Z,27.29
2018-05-09T09:19:13.452Z,28.12
2018-05-09T09:21:41.465Z,28.53
2018-05-09T09:24:09.535Z,27.42
2018-05-09T09:26:37.409Z,26.30
2018-05-09T09:29:05.506Z,25.22
2018-05-09T09:31:33.465Z,24.99
2018-05-09T09:34:01.431Z,25.64
2018-05-09T09:36:29.488Z,26.61
2018-05-09T09:38:57.892Z,28.87
2018-05-09T09:41:25.971Z,27.75
2018-05-09T09:43:53.955Z,24.73
2018-05-09T09:46:21.878Z,26.17
2018-05-09T09:48:49.868Z,24.60
2018-05-09T09:51:17.875Z,24.60
2018-05-09T09:53:45.897Z,23.75
2018-05-09T09:56:13.880Z,24.56
2018-05-09T09:58:41.901Z,23.41
2018-05-09T10:01:09.864Z,22.42
2018-05-09T10:03:37.859Z,20.25
2018-05-09T10:06:05.794Z,19.39
2018-05-09T10:08:33.869Z,21.33
2018-05-09T10:11:01.845Z,22.13
2018-05-09T10:13:29.895Z,22.26
2018-05-09T10:15:57.903Z,21.99
2018-05-09T10:18:25.946Z,20.44
2018-05-09T10:20:53.965Z,20.11
2018-05-09T10:23:22.088Z,20.23
2018-05-09T10:25:50.137Z,21.21
2018-05-09T10:28:18.231Z,20.75
2018-05-09T10:30:46.264Z,21.83
2018-05-09T10:33:14.335Z,21.82
2018-05-09T10:35:42.352Z,20.41
2018-05-09T10:38:10.455Z,21.65
2018-05-09T10:40:38.868Z,19.77
2018-05-09T10:43:06.902Z,20.77
2018-05-09T10:45:34.979Z,20.36
2018-05-09T10:48:03.040Z,19.50
2018-05-09T10:50:30.987Z,19.35
2018-05-09T10:52:58.923Z,19.47
2018-05-09T10:55:26.893Z,20.21
2018-05-09T10:57:54.934Z,19.02
2018-05-09T11:00:22.955Z,20.35
2018-05-09T11:02:50.989Z,18.58
2018-05-09T11:05:19.067Z,20.46
2018-05-09T11:07:47.063Z,20.06
2018-05-09T11:10:15.067Z,18.75
2018-05-09T11:12:43.078Z,18.23
2018-05-09T11:15:11.100Z,18.97
2018-05-09T11:17:39.183Z,18.47
2018-05-09T11:20:07.178Z,16.27
2018-05-09T11:22:35.251Z,16.71
2018-05-09T11:25:03.231Z,16.35
2018-05-09T11:27:31.235Z,15.58
2018-05-09T11:29:59.385Z,15.70
2018-05-09T11:32:27.501Z,16.03
2018-05-09T11:34:55.537Z,16.50
2018-05-09T11:37:23.582Z,14.57
2018-05-09T11:39:51.588Z,15.62
2018-05-09T11:42:19.916Z,17.06
2018-05-09T11:44:47.860Z,17.80
2018-05-09T11:47:15.879Z,19.61
2018-05-09T11:49:43.947Z,19.81
2018-05-09T11:52:12.015Z,18.88
2018-05-09T11:54:40.029Z,19.21
2018-05-09T11:57:08.066Z,18.99
2018-05-09T11:59:36.146Z,18.75
2018-05-09T12:02:04.247Z,18.63
2018-05-09T12:04:32.368Z,20.13
2018-05-09T12:07:00.381Z,18.07
2018-05-09T12:09:28.346Z,19.79
2018-05-09T12:11:56.497Z,19.55
2018-05-09T12:14:24.563Z,19.09
2018-05-09T12:16:52.603Z,18.46
2018-05-09T12:19:20.756Z,19.43
2018-05-09T12:21:48.897Z,17.85
2018-05-09T12:24:17.050Z,17.76
2018-05-09T12:26:45.494Z,18.02
2018-05-09T12:29:13.582Z,17.17
2018-05-09T12:31:41.676Z,18.62
2018-05-09T12:34:09.885Z,17.81
2018-05-09T12:36:38.005Z,17.56
2018-05-09T12:39:06.100Z,18.13
2018-05-09T12:41:34.263Z,16.72
2018-05-09T12:44:02.789Z,18.09
2018-05-09T12:46:30.832Z,18.96
2018-05-09T12:48:59.835Z,19.38
2018-05-09T12:51:27.905Z,18.86
2018-05-09T12:53:55.934Z,19.22
2018-05-09T12:56:23.999Z,19.34
2018-05-09T12:58:52.022Z,17.70
2018-05-09T13:01:20.074Z,18.01
2018-05-09T13:03:48.126Z,18.75
2018-05-09T13:06:16.262Z,18.55
2018-05-09T13:08:44.930Z,20.67
2018-05-09T13:11:13.043Z,21.32
2018-05-09T13:13:41.042Z,20.97
2018-05-09T13:16:09.057Z,22.25
2018-05-09T13:18:36.903Z,22.59
2018-05-09T13:21:04.948Z,23.66
2018-05-09T13:23:32.987Z,23.13
2018-05-09T13:26:01.042Z,23.04
2018-05-09T13:28:29.090Z,22.01
2018-05-09T13:30:57.168Z,22.23
2018-05-09T13:33:25.193Z,22.63
2018-05-09T13:35:53.283Z,23.59
2018-05-09T13:38:21.291Z,23.14
2018-05-09T13:40:49.408Z,22.99
2018-05-09T13:43:17.431Z,22.19
2018-05-09T13:45:45.763Z,22.65
2018-05-09T13:48:13.789Z,23.60
2018-05-09T13:50:41.854Z,22.64
2018-05-09T13:53:09.962Z,23.19
2018-05-09T14:42:18.995Z,33.13
2018-05-09T14:44:47.720Z,31.79
2018-05-09T14:47:17.358Z,32.41
2018-05-09T14:49:45.787Z,33.79
2018-05-09T14:52:14.353Z,34.47
2018-05-09T14:54:42.645Z,33.92
2018-05-09T14:57:11.311Z,37.45
2018-05-09T14:59:39.799Z,40.25
2018-05-09T15:02:08.018Z,41.43
2018-05-09T15:04:36.443Z,41.89
2018-05-09T15:07:04.753Z,43.26
2018-05-09T15:09:33.193Z,42.98
2018-05-09T15:12:01.853Z,43.95
2018-05-09T15:14:30.405Z,43.14
2018-05-09T15:16:58.506Z,44.78
2018-05-09T15:19:26.935Z,41.05
2018-05-09T15:21:55.393Z,42.03
2018-05-09T15:24:23.895Z,41.15
2018-05-09T15:26:52.473Z,41.71
2018-05-09T15:29:21.041Z,43.73
2018-05-09T15:31:49.365Z,43.08
2018-05-09T15:34:18.006Z,42.37
2018-05-09T15:36:46.487Z,41.28
2018-05-09T15:39:14.889Z,43.84
2018-05-09T15:41:43.447Z,44.24
2018-05-09T15:44:12.225Z,44.43
2018-05-09T15:46:40.527Z,43.12
2018-05-09T15:49:09.010Z,42.65
2018-05-09T15:51:37.571Z,44.61
2018-05-09T15:54:05.913Z,44.54
2018-05-09T15:56:34.526Z,43.20
2018-05-09T15:59:02.906Z,46.23
2018-05-09T16:01:31.407Z,45.23
2018-05-09T16:03:59.870Z,44.82
2018-05-09T16:06:28.318Z,44.75
2018-05-09T16:08:56.723Z,46.46
2018-05-09T16:11:25.315Z,50.43
2018-05-09T16:13:53.620Z,49.82
2018-05-09T16:16:22.305Z,49.78
2018-05-09T16:18:50.751Z,49.34
2018-05-09T16:21:19.063Z,50.90
2018-05-09T16:23:47.516Z,51.88
2018-05-09T16:26:15.949Z,51.92
2018-05-09T16:28:44.382Z,50.91
2018-05-09T16:31:13.160Z,52.72
2018-05-09T16:33:41.702Z,55.57
2018-05-09T16:36:10.313Z,55.21
2018-05-09T16:38:39.007Z,55.78
2018-05-09T16:41:07.909Z,55.46
2018-05-09T16:43:36.578Z,56.74
2018-05-09T16:46:04.827Z,56.55
2018-05-09T16:48:33.435Z,56.42
2018-05-09T16:51:02.023Z,53.95
2018-05-09T16:53:30.324Z,54.54
2018-05-09T16:55:58.983Z,50.48
2018-05-09T16:58:27.663Z,49.14
2018-05-09T17:00:56.059Z,49.36
2018-05-09T17:03:24.851Z,50.06
2018-05-09T17:05:53.514Z,49.32
2018-05-09T17:08:21.965Z,53.15
2018-05-09T17:10:50.515Z,56.60
2018-05-09T17:13:19.166Z,57.51
2018-05-09T17:15:47.744Z,57.22
2018-05-09T17:18:16.189Z,54.62
2018-05-09T17:20:44.720Z,57.08
2018-05-09T17:23:13.388Z,55.26
2018-05-09T17:25:41.636Z,56.31
2018-05-09T17:28:10.154Z,56.41
2018-05-09T17:30:38.748Z,57.48
2018-05-09T17:33:07.060Z,57.20
2018-05-09T17:35:35.596Z,57.11
2018-05-09T17:38:04.173Z,58.43
2018-05-09T17:40:32.786Z,59.25
2018-05-09T17:43:01.256Z,59.56
2018-05-09T17:45:29.818Z,58.84
2018-05-09T17:47:58.111Z,58.19
2018-05-09T17:50:27.594Z,57.62
2018-05-09T17:52:56.006Z,55.37
2018-05-09T17:55:24.241Z,54.13
2018-05-09T17:57:52.654Z,51.73
2018-05-09T18:00:21.124Z,52.52
2018-05-09T18:02:49.486Z,52.70
2018-05-09T18:05:17.974Z,53.72
2018-05-09T18:07:46.343Z,58.29
2018-05-09T18:10:14.557Z,62.16
2018-05-09T18:12:43.034Z,61.15
2018-05-09T18:15:11.413Z,59.03
2018-05-09T18:17:39.956Z,59.84
2018-05-09T18:20:08.382Z,59.25
2018-05-09T18:22:36.883Z,60.25
2018-05-09T18:25:05.194Z,57.21
2018-05-09T18:27:33.738Z,58.35
2018-05-09T18:30:02.079Z,60.16
2018-05-09T18:32:30.625Z,58.98
2018-05-09T18:34:59.022Z,59.22
2018-05-09T18:37:27.595Z,56.30
2018-05-09T18:39:56.105Z,57.60
2018-05-09T18:42:24.882Z,58.61
2018-05-09T18:44:52.821Z,58.15
2018-05-09T18:47:20.873Z,57.19
2018-05-09T18:49:48.907Z,56.42
2018-05-09T18:52:16.993Z,55.59
2018-05-09T18:54:45.295Z,54.89
2018-05-09T18:57:13.263Z,57.19
2018-05-09T18:59:41.640Z,59.32
2018-05-09T19:02:10.037Z,59.37
2018-05-09T19:04:38.732Z,59.46
2018-05-09T19:07:07.027Z,57.52
2018-05-09T19:09:35.483Z,56.87
2018-05-09T19:12:03.665Z,56.21
2018-05-09T19:14:32.042Z,55.18
2018-05-09T19:17:00.118Z,56.43
2018-05-09T19:19:28.374Z,57.89
2018-05-09T19:21:57.066Z,55.47
2018-05-09T19:24:25.553Z,54.33
2018-05-09T19:26:53.829Z,53.76
2018-05-09T19:29:22.244Z,54.40
2018-05-09T19:31:50.699Z,54.35
2018-05-09T19:34:19.292Z,54.16
2018-05-09T19:36:47.758Z,54.50
2018-05-09T19:39:16.217Z,53.53
2018-05-09T19:41:44.981Z,52.82
2018-05-09T19:44:13.505Z,53.34
2018-05-09T19:46:42.072Z,52.69
2018-05-09T19:49:10.549Z,54.70
2018-05-09T19:51:38.838Z,53.24
2018-05-09T19:54:07.307Z,53.31
2018-05-09T19:56:36.184Z,53.20
2018-05-09T19:59:04.525Z,52.67
2018-05-09T20:01:33.372Z,53.44
2018-05-09T20:04:02.146Z,53.39
2018-05-09T20:06:30.735Z,56.39
2018-05-09T20:08:59.337Z,55.47
2018-05-09T20:11:28.002Z,54.23
2018-05-09T20:13:56.743Z,53.57
2018-05-09T20:16:25.022Z,55.72
2018-05-09T20:18:53.344Z,56.04
2018-05-09T20:21:21.907Z,54.11
2018-05-09T20:23:50.657Z,54.25
2018-05-09T20:26:19.445Z,54.54
2018-05-09T20:28:53.394Z,53.42
2018-05-09T20:31:39.464Z,54.02
2018-05-09T20:34:08.016Z,54.03
2018-05-09T20:36:36.359Z,53.71
2018-05-09T20:39:04.977Z,53.61
2018-05-09T20:41:33.079Z,55.39
2018-05-09T20:44:01.558Z,52.84
2018-05-09T20:46:29.729Z,56.76
2018-05-09T20:48:57.752Z,60.38
2018-05-09T20:51:38.091Z,60.95
2018-05-09T20:54:06.410Z,61.38
2018-05-09T20:56:35.063Z,60.98
2018-05-09T20:59:03.630Z,60.65
2018-05-09T21:01:43.466Z,61.55
2018-05-09T21:04:11.542Z,61.85
2018-05-09T21:06:39.593Z,60.49
2018-05-09T21:09:07.737Z,61.40
2018-05-09T21:11:36.346Z,60.95
2018-05-09T21:14:04.974Z,58.81
2018-05-09T21:16:33.543Z,60.70
2018-05-09T21:19:01.987Z,59.72
2018-05-09T21:21:30.725Z,57.36
2018-05-09T21:23:58.822Z,57.36
2018-05-09T21:26:26.827Z,59.06
2018-05-09T21:28:54.852Z,60.65
2018-05-09T21:31:22.886Z,60.41
2018-05-09T21:33:50.917Z,60.79
2018-05-09T21:36:19.101Z,62.49
2018-05-09T21:38:47.081Z,63.89
2018-05-09T21:41:15.143Z,63.69
2018-05-09T21:43:43.162Z,61.65
2018-05-09T21:46:11.223Z,60.91
2018-05-09T21:48:39.235Z,59.99
2018-05-09T21:51:07.222Z,64.35
2018-05-09T21:53:35.264Z,63.68
2018-05-09T21:56:03.386Z,63.75
2018-05-09T21:58:31.326Z,61.58
2018-05-09T22:00:59.442Z,64.11
2018-05-09T22:03:27.404Z,63.89
2018-05-09T22:05:55.431Z,61.60
2018-05-09T22:08:23.515Z,63.04
2018-05-09T22:10:51.682Z,62.02
2018-05-09T22:13:19.747Z,60.80
2018-05-09T22:15:48.269Z,59.32
2018-05-09T22:18:17.052Z,60.84
2018-05-09T22:20:45.483Z,59.30
2018-05-09T22:23:14.024Z,58.04
2018-05-09T22:25:42.047Z,57.78
2018-05-09T22:28:10.066Z,57.33
2018-05-09T22:30:38.063Z,57.51
2018-05-09T22:33:06.094Z,58.50
2018-05-09T22:35:34.088Z,57.45
2018-05-09T22:38:02.078Z,57.59
2018-05-09T22:40:30.090Z,58.64
2018-05-09T22:42:58.173Z,57.64
2018-05-09T22:45:26.183Z,57.25
2018-05-09T22:47:54.192Z,57.05
2018-05-09T22:50:22.175Z,57.60
2018-05-09T22:52:50.191Z,57.54
2018-05-09T22:55:18.207Z,56.83
2018-05-09T22:57:46.250Z,56.88
2018-05-09T23:00:14.350Z,57.83
2018-05-09T23:02:42.601Z,58.67
2018-05-09T23:05:10.604Z,58.20
2018-05-09T23:07:38.623Z,57.24
2018-05-09T23:10:06.661Z,58.76
2018-05-09T23:12:34.642Z,59.14
2018-05-09T23:15:02.765Z,58.76
2018-05-09T23:17:30.762Z,57.32
2018-05-09T23:19:58.723Z,56.71
2018-05-09T23:22:26.755Z,56.78
2018-05-09T23:24:54.874Z,56.38
2018-05-09T23:27:22.911Z,57.03
2018-05-09T23:29:50.898Z,56.78
2018-05-09T23:32:19.003Z,56.69
2018-05-09T23:34:47.020Z,56.61
2018-05-09T23:37:14.985Z,56.89
2018-05-09T23:39:43.009Z,56.73
2018-05-09T23:42:11.049Z,56.46
2018-05-09T23:44:39.666Z,56.36
2018-05-09T23:47:08.100Z,56.34
2018-05-09T23:49:36.796Z,56.20
2018-05-09T23:52:05.317Z,56.00
2018-05-09T23:54:33.749Z,56.37
2018-05-09T23:57:02.200Z,56.19
2018-05-09T23:59:30.521Z,56.11
